sensor_id;sensor_type;location;lat;lon;timestamp;P1;durP1;ratioP1;P2;durP2;ratioP2
70126;SDS011;57491;42.694;23.314;2023-07-13T00:00:30;18.45;;;9.25;;
70126;SDS011;57491;42.694;23.314;2023-07-13T00:05:26;19.25;;;9.57;;
70126;SDS011;57491;42.694;23.314;2023-07-13T00:07:53;14.45;;;8.85;;
70126;SDS011;57491;42.694;23.314;2023-07-13T00:10:21;16.50;;;9.70;;
70126;SDS011;57491;42.694;23.314;2023-07-13T00:12:48;18.00;;;9.55;;
70126;SDS011;57491;42.694;23.314;2023-07-13T00:15:16;19.35;;;9.25;;
70126;SDS011;57491;42.694;23.314;2023-07-13T00:17:48;12.30;;;9.15;;
70126;SDS011;57491;42.694;23.314;2023-07-13T00:20:17;13.98;;;8.73;;
70126;SDS011;57491;42.694;23.314;2023-07-13T00:22:44;14.45;;;8.48;;
70126;SDS011;57491;42.694;23.314;2023-07-13T00:25:11;14.13;;;8.88;;
70126;SDS011;57491;42.694;23.314;2023-07-13T00:27:38;14.70;;;8.10;;
70126;SDS011;57491;42.694;23.314;2023-07-13T00:30:06;12.57;;;8.25;;
70126;SDS011;57491;42.694;23.314;2023-07-13T00:32:34;13.30;;;7.63;;
70126;SDS011;57491;42.694;23.314;2023-07-13T00:35:01;11.38;;;7.97;;
70126;SDS011;57491;42.694;23.314;2023-07-13T00:37:31;11.60;;;7.90;;
70126;SDS011;57491;42.694;23.314;2023-07-13T00:39:59;10.95;;;7.30;;
70126;SDS011;57491;42.694;23.314;2023-07-13T00:42:26;15.25;;;7.90;;
70126;SDS011;57491;42.694;23.314;2023-07-13T00:45:04;9.40;;;7.60;;
70126;SDS011;57491;42.694;23.314;2023-07-13T00:47:32;10.65;;;7.97;;
70126;SDS011;57491;42.694;23.314;2023-07-13T00:50:00;10.52;;;7.32;;
70126;SDS011;57491;42.694;23.314;2023-07-13T00:52:30;12.10;;;7.95;;
70126;SDS011;57491;42.694;23.314;2023-07-13T00:54:57;9.05;;;7.63;;
70126;SDS011;57491;42.694;23.314;2023-07-13T00:57:25;9.93;;;7.60;;
70126;SDS011;57491;42.694;23.314;2023-07-13T00:59:53;10.15;;;8.30;;
70126;SDS011;57491;42.694;23.314;2023-07-13T01:02:22;10.02;;;8.30;;
70126;SDS011;57491;42.694;23.314;2023-07-13T01:04:50;11.95;;;7.60;;
70126;SDS011;57491;42.694;23.314;2023-07-13T01:07:17;9.93;;;8.02;;
70126;SDS011;57491;42.694;23.314;2023-07-13T01:09:46;12.23;;;7.78;;
70126;SDS011;57491;42.694;23.314;2023-07-13T01:12:13;10.88;;;7.43;;
70126;SDS011;57491;42.694;23.314;2023-07-13T01:14:40;11.65;;;7.82;;
70126;SDS011;57491;42.694;23.314;2023-07-13T01:17:08;10.85;;;8.13;;
70126;SDS011;57491;42.694;23.314;2023-07-13T01:19:38;9.45;;;7.22;;
70126;SDS011;57491;42.694;23.314;2023-07-13T01:22:10;12.18;;;7.88;;
70126;SDS011;57491;42.694;23.314;2023-07-13T01:24:39;13.82;;;8.20;;
70126;SDS011;57491;42.694;23.314;2023-07-13T01:27:08;10.68;;;7.47;;
70126;SDS011;57491;42.694;23.314;2023-07-13T01:29:37;10.90;;;8.27;;
70126;SDS011;57491;42.694;23.314;2023-07-13T01:32:07;13.27;;;8.20;;
70126;SDS011;57491;42.694;23.314;2023-07-13T01:34:36;10.52;;;7.80;;
70126;SDS011;57491;42.694;23.314;2023-07-13T01:37:04;13.43;;;8.43;;
70126;SDS011;57491;42.694;23.314;2023-07-13T01:39:33;13.15;;;7.95;;
70126;SDS011;57491;42.694;23.314;2023-07-13T01:42:00;9.57;;;7.95;;
70126;SDS011;57491;42.694;23.314;2023-07-13T01:46:54;11.38;;;7.85;;
70126;SDS011;57491;42.694;23.314;2023-07-13T01:49:21;10.88;;;8.30;;
70126;SDS011;57491;42.694;23.314;2023-07-13T01:51:48;8.90;;;7.65;;
70126;SDS011;57491;42.694;23.314;2023-07-13T01:54:16;11.35;;;8.52;;
70126;SDS011;57491;42.694;23.314;2023-07-13T01:56:44;10.32;;;7.93;;
70126;SDS011;57491;42.694;23.314;2023-07-13T01:59:11;10.90;;;8.02;;
70126;SDS011;57491;42.694;23.314;2023-07-13T02:01:39;11.10;;;8.23;;
70126;SDS011;57491;42.694;23.314;2023-07-13T02:04:06;9.82;;;7.57;;
70126;SDS011;57491;42.694;23.314;2023-07-13T02:06:33;10.13;;;7.63;;
70126;SDS011;57491;42.694;23.314;2023-07-13T02:09:00;12.63;;;8.52;;
70126;SDS011;57491;42.694;23.314;2023-07-13T02:11:27;11.70;;;9.23;;
70126;SDS011;57491;42.694;23.314;2023-07-13T02:13:59;10.52;;;8.07;;
70126;SDS011;57491;42.694;23.314;2023-07-13T02:16:27;12.93;;;8.68;;
70126;SDS011;57491;42.694;23.314;2023-07-13T02:18:54;14.43;;;9.23;;
70126;SDS011;57491;42.694;23.314;2023-07-13T02:21:21;10.82;;;8.75;;
70126;SDS011;57491;42.694;23.314;2023-07-13T02:23:49;15.13;;;9.02;;
70126;SDS011;57491;42.694;23.314;2023-07-13T02:26:18;10.60;;;8.93;;
70126;SDS011;57491;42.694;23.314;2023-07-13T02:28:45;12.70;;;9.00;;
70126;SDS011;57491;42.694;23.314;2023-07-13T02:31:14;13.15;;;8.63;;
70126;SDS011;57491;42.694;23.314;2023-07-13T02:33:42;12.88;;;9.57;;
70126;SDS011;57491;42.694;23.314;2023-07-13T02:36:10;15.00;;;9.90;;
70126;SDS011;57491;42.694;23.314;2023-07-13T02:38:38;16.42;;;8.98;;
70126;SDS011;57491;42.694;23.314;2023-07-13T02:41:05;13.02;;;9.88;;
70126;SDS011;57491;42.694;23.314;2023-07-13T02:43:34;15.10;;;10.13;;
70126;SDS011;57491;42.694;23.314;2023-07-13T02:48:34;12.80;;;9.23;;
70126;SDS011;57491;42.694;23.314;2023-07-13T02:51:01;10.93;;;9.20;;
70126;SDS011;57491;42.694;23.314;2023-07-13T02:58:23;12.50;;;9.77;;
70126;SDS011;57491;42.694;23.314;2023-07-13T03:00:50;15.02;;;10.05;;
70126;SDS011;57491;42.694;23.314;2023-07-13T03:03:17;12.23;;;8.90;;
70126;SDS011;57491;42.694;23.314;2023-07-13T03:05:45;14.77;;;10.35;;
70126;SDS011;57491;42.694;23.314;2023-07-13T03:08:15;11.73;;;8.98;;
70126;SDS011;57491;42.694;23.314;2023-07-13T03:10:43;11.57;;;8.85;;
70126;SDS011;57491;42.694;23.314;2023-07-13T03:13:10;12.30;;;9.02;;
70126;SDS011;57491;42.694;23.314;2023-07-13T03:15:37;9.00;;;8.10;;
70126;SDS011;57491;42.694;23.314;2023-07-13T03:18:04;11.10;;;9.38;;
70126;SDS011;57491;42.694;23.314;2023-07-13T03:20:32;10.68;;;9.13;;
70126;SDS011;57491;42.694;23.314;2023-07-13T03:23:01;12.73;;;9.93;;
70126;SDS011;57491;42.694;23.314;2023-07-13T03:25:28;12.57;;;9.85;;
70126;SDS011;57491;42.694;23.314;2023-07-13T03:27:55;17.17;;;11.60;;
70126;SDS011;57491;42.694;23.314;2023-07-13T03:30:22;12.13;;;9.85;;
70126;SDS011;57491;42.694;23.314;2023-07-13T03:32:49;11.82;;;9.05;;
70126;SDS011;57491;42.694;23.314;2023-07-13T03:35:16;11.27;;;9.20;;
70126;SDS011;57491;42.694;23.314;2023-07-13T03:37:44;10.52;;;9.40;;
70126;SDS011;57491;42.694;23.314;2023-07-13T03:40:13;11.93;;;9.27;;
70126;SDS011;57491;42.694;23.314;2023-07-13T03:42:40;9.55;;;8.48;;
70126;SDS011;57491;42.694;23.314;2023-07-13T03:45:08;12.07;;;9.20;;
70126;SDS011;57491;42.694;23.314;2023-07-13T03:47:35;12.15;;;9.57;;
70126;SDS011;57491;42.694;23.314;2023-07-13T03:50:02;15.85;;;9.60;;
70126;SDS011;57491;42.694;23.314;2023-07-13T03:52:31;14.18;;;10.27;;
70126;SDS011;57491;42.694;23.314;2023-07-13T03:54:58;13.88;;;9.35;;
70126;SDS011;57491;42.694;23.314;2023-07-13T03:57:26;16.63;;;12.18;;
70126;SDS011;57491;42.694;23.314;2023-07-13T03:59:53;19.08;;;10.20;;
70126;SDS011;57491;42.694;23.314;2023-07-13T04:02:20;13.45;;;10.05;;
70126;SDS011;57491;42.694;23.314;2023-07-13T04:04:47;15.57;;;10.32;;
70126;SDS011;57491;42.694;23.314;2023-07-13T04:07:15;16.02;;;9.80;;
70126;SDS011;57491;42.694;23.314;2023-07-13T04:09:42;11.63;;;9.38;;
70126;SDS011;57491;42.694;23.314;2023-07-13T04:12:09;17.10;;;9.48;;
70126;SDS011;57491;42.694;23.314;2023-07-13T04:14:37;12.63;;;10.60;;
70126;SDS011;57491;42.694;23.314;2023-07-13T04:17:04;14.18;;;9.80;;
70126;SDS011;57491;42.694;23.314;2023-07-13T04:19:32;14.85;;;10.32;;
70126;SDS011;57491;42.694;23.314;2023-07-13T04:21:59;14.02;;;9.93;;
70126;SDS011;57491;42.694;23.314;2023-07-13T04:24:26;16.67;;;10.95;;
70126;SDS011;57491;42.694;23.314;2023-07-13T04:26:53;14.95;;;10.38;;
70126;SDS011;57491;42.694;23.314;2023-07-13T04:29:20;15.55;;;10.25;;
70126;SDS011;57491;42.694;23.314;2023-07-13T04:31:48;12.45;;;10.68;;
70126;SDS011;57491;42.694;23.314;2023-07-13T04:34:15;20.17;;;10.82;;
70126;SDS011;57491;42.694;23.314;2023-07-13T04:36:42;16.40;;;11.07;;
70126;SDS011;57491;42.694;23.314;2023-07-13T04:39:09;23.38;;;11.68;;
70126;SDS011;57491;42.694;23.314;2023-07-13T04:41:36;14.55;;;10.57;;
70126;SDS011;57491;42.694;23.314;2023-07-13T04:44:03;16.42;;;12.48;;
70126;SDS011;57491;42.694;23.314;2023-07-13T04:48:59;21.63;;;12.27;;
70126;SDS011;57491;42.694;23.314;2023-07-13T04:51:29;21.33;;;12.32;;
70126;SDS011;57491;42.694;23.314;2023-07-13T04:56:24;21.30;;;12.07;;
70126;SDS011;57491;42.694;23.314;2023-07-13T04:58:51;18.83;;;12.10;;
70126;SDS011;57491;42.694;23.314;2023-07-13T05:01:18;21.58;;;12.13;;
70126;SDS011;57491;42.694;23.314;2023-07-13T05:03:45;18.77;;;11.77;;
70126;SDS011;57491;42.694;23.314;2023-07-13T05:06:14;18.00;;;11.98;;
70126;SDS011;57491;42.694;23.314;2023-07-13T05:08:41;14.30;;;11.15;;
70126;SDS011;57491;42.694;23.314;2023-07-13T05:11:08;17.38;;;11.48;;
70126;SDS011;57491;42.694;23.314;2023-07-13T05:13:35;15.15;;;11.90;;
70126;SDS011;57491;42.694;23.314;2023-07-13T05:16:02;18.48;;;12.10;;
70126;SDS011;57491;42.694;23.314;2023-07-13T05:18:31;19.95;;;12.00;;
70126;SDS011;57491;42.694;23.314;2023-07-13T05:20:59;17.85;;;12.15;;
70126;SDS011;57491;42.694;23.314;2023-07-13T05:23:29;16.50;;;11.45;;
70126;SDS011;57491;42.694;23.314;2023-07-13T05:25:57;16.38;;;11.80;;
70126;SDS011;57491;42.694;23.314;2023-07-13T05:30:51;20.33;;;11.48;;
70126;SDS011;57491;42.694;23.314;2023-07-13T05:33:19;15.77;;;11.25;;
70126;SDS011;57491;42.694;23.314;2023-07-13T05:35:47;16.88;;;11.13;;
70126;SDS011;57491;42.694;23.314;2023-07-13T05:38:14;17.65;;;13.07;;
70126;SDS011;57491;42.694;23.314;2023-07-13T05:40:43;14.77;;;11.98;;
70126;SDS011;57491;42.694;23.314;2023-07-13T05:43:10;18.00;;;11.63;;
70126;SDS011;57491;42.694;23.314;2023-07-13T05:45:38;15.00;;;12.13;;
70126;SDS011;57491;42.694;23.314;2023-07-13T05:48:05;18.83;;;12.48;;
70126;SDS011;57491;42.694;23.314;2023-07-13T05:50:32;22.52;;;13.98;;
70126;SDS011;57491;42.694;23.314;2023-07-13T05:53:00;17.08;;;12.38;;
70126;SDS011;57491;42.694;23.314;2023-07-13T05:55:27;24.92;;;12.75;;
70126;SDS011;57491;42.694;23.314;2023-07-13T05:57:55;18.48;;;12.98;;
70126;SDS011;57491;42.694;23.314;2023-07-13T06:00:23;16.75;;;12.98;;
70126;SDS011;57491;42.694;23.314;2023-07-13T06:02:50;17.75;;;12.93;;
70126;SDS011;57491;42.694;23.314;2023-07-13T06:05:17;21.42;;;13.48;;
70126;SDS011;57491;42.694;23.314;2023-07-13T06:07:45;16.73;;;12.93;;
70126;SDS011;57491;42.694;23.314;2023-07-13T06:10:12;18.38;;;12.75;;
70126;SDS011;57491;42.694;23.314;2023-07-13T06:12:39;16.83;;;12.75;;
70126;SDS011;57491;42.694;23.314;2023-07-13T06:15:08;19.65;;;13.40;;
70126;SDS011;57491;42.694;23.314;2023-07-13T06:17:35;25.75;;;18.48;;
70126;SDS011;57491;42.694;23.314;2023-07-13T06:20:03;22.60;;;13.25;;
70126;SDS011;57491;42.694;23.314;2023-07-13T06:22:30;17.55;;;14.02;;
70126;SDS011;57491;42.694;23.314;2023-07-13T06:24:57;21.05;;;13.70;;
70126;SDS011;57491;42.694;23.314;2023-07-13T06:27:24;20.55;;;12.65;;
70126;SDS011;57491;42.694;23.314;2023-07-13T06:29:52;25.73;;;13.55;;
70126;SDS011;57491;42.694;23.314;2023-07-13T06:32:20;18.63;;;12.82;;
70126;SDS011;57491;42.694;23.314;2023-07-13T06:34:47;18.85;;;13.55;;
70126;SDS011;57491;42.694;23.314;2023-07-13T06:37:14;19.70;;;13.73;;
70126;SDS011;57491;42.694;23.314;2023-07-13T06:39:41;19.77;;;13.50;;
70126;SDS011;57491;42.694;23.314;2023-07-13T06:42:08;18.40;;;12.20;;
70126;SDS011;57491;42.694;23.314;2023-07-13T06:44:36;14.35;;;12.85;;
70126;SDS011;57491;42.694;23.314;2023-07-13T06:47:04;19.30;;;12.88;;
70126;SDS011;57491;42.694;23.314;2023-07-13T06:49:33;19.50;;;14.73;;
70126;SDS011;57491;42.694;23.314;2023-07-13T06:52:00;19.30;;;12.93;;
70126;SDS011;57491;42.694;23.314;2023-07-13T06:54:27;16.75;;;12.63;;
70126;SDS011;57491;42.694;23.314;2023-07-13T06:56:54;23.02;;;13.88;;
70126;SDS011;57491;42.694;23.314;2023-07-13T06:59:21;14.13;;;11.90;;
70126;SDS011;57491;42.694;23.314;2023-07-13T07:01:48;19.50;;;12.30;;
70126;SDS011;57491;42.694;23.314;2023-07-13T07:04:16;15.23;;;11.48;;
70126;SDS011;57491;42.694;23.314;2023-07-13T07:06:44;25.20;;;12.15;;
70126;SDS011;57491;42.694;23.314;2023-07-13T07:09:11;14.93;;;12.70;;
70126;SDS011;57491;42.694;23.314;2023-07-13T07:11:39;17.02;;;12.68;;
70126;SDS011;57491;42.694;23.314;2023-07-13T07:14:07;20.80;;;12.82;;
70126;SDS011;57491;42.694;23.314;2023-07-13T07:16:34;22.83;;;12.07;;
70126;SDS011;57491;42.694;23.314;2023-07-13T07:19:02;15.50;;;11.55;;
70126;SDS011;57491;42.694;23.314;2023-07-13T07:21:29;18.40;;;12.10;;
70126;SDS011;57491;42.694;23.314;2023-07-13T07:23:58;16.92;;;11.50;;
70126;SDS011;57491;42.694;23.314;2023-07-13T07:26:25;20.42;;;12.40;;
70126;SDS011;57491;42.694;23.314;2023-07-13T07:28:52;16.77;;;13.05;;
70126;SDS011;57491;42.694;23.314;2023-07-13T07:33:47;17.02;;;12.70;;
70126;SDS011;57491;42.694;23.314;2023-07-13T07:36:15;17.98;;;12.65;;
70126;SDS011;57491;42.694;23.314;2023-07-13T07:38:42;17.75;;;12.23;;
70126;SDS011;57491;42.694;23.314;2023-07-13T07:41:11;19.67;;;13.00;;
70126;SDS011;57491;42.694;23.314;2023-07-13T07:43:40;15.13;;;12.50;;
70126;SDS011;57491;42.694;23.314;2023-07-13T07:46:07;22.40;;;15.80;;
70126;SDS011;57491;42.694;23.314;2023-07-13T07:48:34;14.38;;;10.93;;
70126;SDS011;57491;42.694;23.314;2023-07-13T07:55:55;13.27;;;10.73;;
70126;SDS011;57491;42.694;23.314;2023-07-13T07:58:23;12.73;;;10.75;;
70126;SDS011;57491;42.694;23.314;2023-07-13T08:00:50;13.73;;;9.93;;
70126;SDS011;57491;42.694;23.314;2023-07-13T08:03:17;17.88;;;11.27;;
70126;SDS011;57491;42.694;23.314;2023-07-13T08:05:44;14.50;;;10.73;;
70126;SDS011;57491;42.694;23.314;2023-07-13T08:13:05;15.13;;;9.88;;
70126;SDS011;57491;42.694;23.314;2023-07-13T08:15:33;13.55;;;10.73;;
70126;SDS011;57491;42.694;23.314;2023-07-13T08:18:00;12.52;;;10.00;;
70126;SDS011;57491;42.694;23.314;2023-07-13T08:20:28;15.63;;;9.32;;
70126;SDS011;57491;42.694;23.314;2023-07-13T08:27:49;14.70;;;10.57;;
70126;SDS011;57491;42.694;23.314;2023-07-13T08:30:16;15.57;;;10.73;;
70126;SDS011;57491;42.694;23.314;2023-07-13T08:32:45;15.43;;;10.63;;
70126;SDS011;57491;42.694;23.314;2023-07-13T08:35:12;13.80;;;10.23;;
70126;SDS011;57491;42.694;23.314;2023-07-13T08:37:39;14.65;;;9.82;;
70126;SDS011;57491;42.694;23.314;2023-07-13T08:42:36;17.35;;;10.13;;
70126;SDS011;57491;42.694;23.314;2023-07-13T08:45:07;14.73;;;9.98;;
70126;SDS011;57491;42.694;23.314;2023-07-13T08:47:44;12.07;;;10.07;;
70126;SDS011;57491;42.694;23.314;2023-07-13T08:50:17;15.07;;;9.70;;
70126;SDS011;57491;42.694;23.314;2023-07-13T08:52:46;13.07;;;10.43;;
70126;SDS011;57491;42.694;23.314;2023-07-13T08:55:15;15.45;;;9.68;;
70126;SDS011;57491;42.694;23.314;2023-07-13T08:57:46;12.90;;;10.25;;
70126;SDS011;57491;42.694;23.314;2023-07-13T09:00:17;18.08;;;12.48;;
70126;SDS011;57491;42.694;23.314;2023-07-13T09:02:54;15.45;;;10.60;;
70126;SDS011;57491;42.694;23.314;2023-07-13T09:05:25;12.23;;;10.88;;
70126;SDS011;57491;42.694;23.314;2023-07-13T09:08:06;13.48;;;10.55;;
70126;SDS011;57491;42.694;23.314;2023-07-13T09:10:48;13.50;;;11.02;;
70126;SDS011;57491;42.694;23.314;2023-07-13T09:13:25;14.35;;;10.63;;
70126;SDS011;57491;42.694;23.314;2023-07-13T09:16:01;14.02;;;11.30;;
70126;SDS011;57491;42.694;23.314;2023-07-13T09:18:33;19.65;;;11.10;;
70126;SDS011;57491;42.694;23.314;2023-07-13T09:21:03;16.60;;;11.13;;
70126;SDS011;57491;42.694;23.314;2023-07-13T09:23:35;12.45;;;10.07;;
70126;SDS011;57491;42.694;23.314;2023-07-13T09:26:04;14.48;;;11.43;;
70126;SDS011;57491;42.694;23.314;2023-07-13T09:28:34;13.50;;;12.10;;
70126;SDS011;57491;42.694;23.314;2023-07-13T09:31:06;16.30;;;11.68;;
70126;SDS011;57491;42.694;23.314;2023-07-13T09:33:40;15.73;;;11.55;;
70126;SDS011;57491;42.694;23.314;2023-07-13T09:36:16;15.88;;;11.90;;
70126;SDS011;57491;42.694;23.314;2023-07-13T09:38:49;18.08;;;11.73;;
70126;SDS011;57491;42.694;23.314;2023-07-13T09:41:21;14.68;;;11.60;;
70126;SDS011;57491;42.694;23.314;2023-07-13T09:44:00;19.67;;;12.35;;
70126;SDS011;57491;42.694;23.314;2023-07-13T09:46:28;20.00;;;12.52;;
70126;SDS011;57491;42.694;23.314;2023-07-13T09:48:57;16.70;;;12.00;;
70126;SDS011;57491;42.694;23.314;2023-07-13T09:51:24;18.67;;;13.30;;
70126;SDS011;57491;42.694;23.314;2023-07-13T09:53:51;12.73;;;11.43;;
70126;SDS011;57491;42.694;23.314;2023-07-13T09:56:20;16.42;;;11.63;;
70126;SDS011;57491;42.694;23.314;2023-07-13T09:58:47;14.85;;;11.40;;
70126;SDS011;57491;42.694;23.314;2023-07-13T10:01:15;13.93;;;11.40;;
70126;SDS011;57491;42.694;23.314;2023-07-13T10:03:51;16.65;;;11.68;;
70126;SDS011;57491;42.694;23.314;2023-07-13T10:06:22;22.80;;;12.30;;
70126;SDS011;57491;42.694;23.314;2023-07-13T10:08:49;17.80;;;11.25;;
70126;SDS011;57491;42.694;23.314;2023-07-13T10:11:18;12.30;;;9.20;;
70126;SDS011;57491;42.694;23.314;2023-07-13T10:13:50;10.05;;;7.85;;
70126;SDS011;57491;42.694;23.314;2023-07-13T10:16:21;9.32;;;6.25;;
70126;SDS011;57491;42.694;23.314;2023-07-13T10:18:50;7.70;;;6.78;;
70126;SDS011;57491;42.694;23.314;2023-07-13T10:21:26;14.18;;;6.03;;
70126;SDS011;57491;42.694;23.314;2023-07-13T10:23:57;8.82;;;6.90;;
70126;SDS011;57491;42.694;23.314;2023-07-13T10:26:33;11.32;;;6.65;;
70126;SDS011;57491;42.694;23.314;2023-07-13T10:29:01;10.10;;;6.70;;
70126;SDS011;57491;42.694;23.314;2023-07-13T10:31:32;13.80;;;7.00;;
70126;SDS011;57491;42.694;23.314;2023-07-13T10:34:04;13.35;;;7.85;;
70126;SDS011;57491;42.694;23.314;2023-07-13T10:36:35;8.13;;;7.05;;
70126;SDS011;57491;42.694;23.314;2023-07-13T10:39:09;11.80;;;6.68;;
70126;SDS011;57491;42.694;23.314;2023-07-13T10:41:43;10.77;;;6.68;;
70126;SDS011;57491;42.694;23.314;2023-07-13T10:44:17;7.10;;;6.40;;
70126;SDS011;57491;42.694;23.314;2023-07-13T10:46:51;10.60;;;7.43;;
70126;SDS011;57491;42.694;23.314;2023-07-13T10:49:20;9.98;;;6.40;;
70126;SDS011;57491;42.694;23.314;2023-07-13T10:51:51;6.85;;;6.15;;
70126;SDS011;57491;42.694;23.314;2023-07-13T10:54:19;9.48;;;6.95;;
70126;SDS011;57491;42.694;23.314;2023-07-13T10:56:52;9.40;;;6.60;;
70126;SDS011;57491;42.694;23.314;2023-07-13T10:59:30;8.05;;;6.00;;
70126;SDS011;57491;42.694;23.314;2023-07-13T11:01:58;10.70;;;6.38;;
70126;SDS011;57491;42.694;23.314;2023-07-13T11:04:39;8.35;;;6.28;;
70126;SDS011;57491;42.694;23.314;2023-07-13T11:07:16;10.77;;;6.63;;
70126;SDS011;57491;42.694;23.314;2023-07-13T11:09:49;11.60;;;6.70;;
70126;SDS011;57491;42.694;23.314;2023-07-13T11:15:27;11.68;;;7.53;;
70126;SDS011;57491;42.694;23.314;2023-07-13T11:17:59;9.00;;;6.47;;
70126;SDS011;57491;42.694;23.314;2023-07-13T11:20:33;12.25;;;6.32;;
70126;SDS011;57491;42.694;23.314;2023-07-13T11:23:16;9.10;;;7.23;;
70126;SDS011;57491;42.694;23.314;2023-07-13T11:25:47;10.63;;;6.28;;
70126;SDS011;57491;42.694;23.314;2023-07-13T11:28:16;8.70;;;6.45;;
70126;SDS011;57491;42.694;23.314;2023-07-13T11:30:48;9.20;;;6.82;;
70126;SDS011;57491;42.694;23.314;2023-07-13T11:33:28;9.65;;;6.97;;
70126;SDS011;57491;42.694;23.314;2023-07-13T11:36:12;9.25;;;6.75;;
70126;SDS011;57491;42.694;23.314;2023-07-13T11:38:43;9.48;;;6.55;;
70126;SDS011;57491;42.694;23.314;2023-07-13T11:41:14;10.10;;;6.90;;
70126;SDS011;57491;42.694;23.314;2023-07-13T11:43:45;12.77;;;6.88;;
70126;SDS011;57491;42.694;23.314;2023-07-13T11:46:18;8.23;;;7.30;;
70126;SDS011;57491;42.694;23.314;2023-07-13T11:48:47;9.48;;;7.40;;
70126;SDS011;57491;42.694;23.314;2023-07-13T11:51:18;12.43;;;7.00;;
70126;SDS011;57491;42.694;23.314;2023-07-13T11:53:51;11.18;;;7.07;;
70126;SDS011;57491;42.694;23.314;2023-07-13T11:56:20;8.50;;;7.60;;
70126;SDS011;57491;42.694;23.314;2023-07-13T11:58:49;10.60;;;7.10;;
70126;SDS011;57491;42.694;23.314;2023-07-13T12:01:20;9.20;;;7.20;;
70126;SDS011;57491;42.694;23.314;2023-07-13T12:03:48;11.95;;;7.45;;
70126;SDS011;57491;42.694;23.314;2023-07-13T12:06:21;8.48;;;7.32;;
70126;SDS011;57491;42.694;23.314;2023-07-13T12:08:56;10.13;;;6.30;;
70126;SDS011;57491;42.694;23.314;2023-07-13T12:11:24;11.88;;;6.47;;
70126;SDS011;57491;42.694;23.314;2023-07-13T12:13:52;10.77;;;6.60;;
70126;SDS011;57491;42.694;23.314;2023-07-13T12:16:21;10.77;;;6.60;;
70126;SDS011;57491;42.694;23.314;2023-07-13T12:18:54;12.15;;;6.78;;
70126;SDS011;57491;42.694;23.314;2023-07-13T12:21:24;13.98;;;7.38;;
70126;SDS011;57491;42.694;23.314;2023-07-13T12:23:58;13.80;;;7.07;;
70126;SDS011;57491;42.694;23.314;2023-07-13T12:26:28;13.05;;;6.70;;
70126;SDS011;57491;42.694;23.314;2023-07-13T12:28:56;9.15;;;7.13;;
70126;SDS011;57491;42.694;23.314;2023-07-13T12:31:29;10.52;;;7.13;;
70126;SDS011;57491;42.694;23.314;2023-07-13T12:33:59;14.05;;;6.70;;
70126;SDS011;57491;42.694;23.314;2023-07-13T12:36:34;11.15;;;5.90;;
70126;SDS011;57491;42.694;23.314;2023-07-13T12:39:11;10.43;;;6.38;;
70126;SDS011;57491;42.694;23.314;2023-07-13T12:41:41;9.90;;;6.10;;
70126;SDS011;57491;42.694;23.314;2023-07-13T12:44:13;9.02;;;6.35;;
70126;SDS011;57491;42.694;23.314;2023-07-13T12:46:53;10.90;;;6.93;;
70126;SDS011;57491;42.694;23.314;2023-07-13T12:49:24;13.43;;;6.97;;
70126;SDS011;57491;42.694;23.314;2023-07-13T12:51:56;9.50;;;6.72;;
70126;SDS011;57491;42.694;23.314;2023-07-13T12:54:26;13.25;;;6.70;;
70126;SDS011;57491;42.694;23.314;2023-07-13T12:56:55;12.85;;;6.93;;
70126;SDS011;57491;42.694;23.314;2023-07-13T12:59:25;11.57;;;6.72;;
70126;SDS011;57491;42.694;23.314;2023-07-13T13:02:04;9.43;;;6.40;;
70126;SDS011;57491;42.694;23.314;2023-07-13T13:04:52;11.02;;;6.43;;
70126;SDS011;57491;42.694;23.314;2023-07-13T13:07:21;10.23;;;6.18;;
70126;SDS011;57491;42.694;23.314;2023-07-13T13:09:49;12.77;;;6.85;;
70126;SDS011;57491;42.694;23.314;2023-07-13T13:12:18;12.48;;;6.15;;
70126;SDS011;57491;42.694;23.314;2023-07-13T13:14:45;12.18;;;6.85;;
70126;SDS011;57491;42.694;23.314;2023-07-13T13:17:16;11.70;;;5.95;;
70126;SDS011;57491;42.694;23.314;2023-07-13T13:19:46;12.32;;;5.80;;
70126;SDS011;57491;42.694;23.314;2023-07-13T13:22:13;14.52;;;6.07;;
70126;SDS011;57491;42.694;23.314;2023-07-13T13:24:40;9.85;;;5.47;;
70126;SDS011;57491;42.694;23.314;2023-07-13T13:27:11;10.70;;;5.65;;
70126;SDS011;57491;42.694;23.314;2023-07-13T13:29:42;8.43;;;6.03;;
70126;SDS011;57491;42.694;23.314;2023-07-13T13:32:10;12.43;;;6.25;;
70126;SDS011;57491;42.694;23.314;2023-07-13T13:34:39;11.90;;;6.35;;
70126;SDS011;57491;42.694;23.314;2023-07-13T13:37:09;10.85;;;5.82;;
70126;SDS011;57491;42.694;23.314;2023-07-13T13:39:44;9.07;;;6.00;;
70126;SDS011;57491;42.694;23.314;2023-07-13T13:42:14;11.73;;;6.13;;
70126;SDS011;57491;42.694;23.314;2023-07-13T13:44:41;10.65;;;6.15;;
70126;SDS011;57491;42.694;23.314;2023-07-13T13:47:22;15.23;;;6.10;;
70126;SDS011;57491;42.694;23.314;2023-07-13T13:49:57;15.90;;;7.03;;
70126;SDS011;57491;42.694;23.314;2023-07-13T13:52:24;15.40;;;6.03;;
70126;SDS011;57491;42.694;23.314;2023-07-13T13:54:52;8.60;;;6.20;;
70126;SDS011;57491;42.694;23.314;2023-07-13T13:57:23;15.13;;;6.72;;
70126;SDS011;57491;42.694;23.314;2023-07-13T13:59:51;10.23;;;6.05;;
70126;SDS011;57491;42.694;23.314;2023-07-13T14:02:22;12.38;;;5.63;;
70126;SDS011;57491;42.694;23.314;2023-07-13T14:04:53;10.30;;;5.93;;
70126;SDS011;57491;42.694;23.314;2023-07-13T14:07:23;10.65;;;6.25;;
70126;SDS011;57491;42.694;23.314;2023-07-13T14:09:51;11.90;;;6.13;;
70126;SDS011;57491;42.694;23.314;2023-07-13T14:12:19;14.95;;;6.80;;
70126;SDS011;57491;42.694;23.314;2023-07-13T14:14:48;12.90;;;6.30;;
70126;SDS011;57491;42.694;23.314;2023-07-13T14:17:18;10.38;;;5.88;;
70126;SDS011;57491;42.694;23.314;2023-07-13T14:19:49;18.73;;;6.63;;
70126;SDS011;57491;42.694;23.314;2023-07-13T14:22:22;11.80;;;6.38;;
70126;SDS011;57491;42.694;23.314;2023-07-13T14:24:50;12.73;;;6.32;;
70126;SDS011;57491;42.694;23.314;2023-07-13T14:27:18;9.32;;;5.93;;
70126;SDS011;57491;42.694;23.314;2023-07-13T14:29:45;11.07;;;6.22;;
70126;SDS011;57491;42.694;23.314;2023-07-13T14:32:14;12.38;;;6.35;;
70126;SDS011;57491;42.694;23.314;2023-07-13T14:34:41;12.73;;;7.53;;
70126;SDS011;57491;42.694;23.314;2023-07-13T14:37:11;9.30;;;5.85;;
70126;SDS011;57491;42.694;23.314;2023-07-13T14:39:42;11.48;;;5.78;;
70126;SDS011;57491;42.694;23.314;2023-07-13T14:42:09;9.25;;;6.45;;
70126;SDS011;57491;42.694;23.314;2023-07-13T14:44:37;10.57;;;6.38;;
70126;SDS011;57491;42.694;23.314;2023-07-13T14:47:05;15.52;;;9.38;;
70126;SDS011;57491;42.694;23.314;2023-07-13T14:49:36;11.05;;;6.38;;
70126;SDS011;57491;42.694;23.314;2023-07-13T14:52:08;15.68;;;6.72;;
70126;SDS011;57491;42.694;23.314;2023-07-13T14:54:38;13.05;;;6.97;;
70126;SDS011;57491;42.694;23.314;2023-07-13T14:57:10;14.48;;;7.10;;
70126;SDS011;57491;42.694;23.314;2023-07-13T14:59:39;13.15;;;6.38;;
70126;SDS011;57491;42.694;23.314;2023-07-13T15:02:15;15.40;;;6.70;;
70126;SDS011;57491;42.694;23.314;2023-07-13T15:04:45;18.90;;;6.70;;
70126;SDS011;57491;42.694;23.314;2023-07-13T15:07:12;12.82;;;6.78;;
70126;SDS011;57491;42.694;23.314;2023-07-13T15:09:41;13.02;;;6.53;;
70126;SDS011;57491;42.694;23.314;2023-07-13T15:12:09;10.93;;;6.53;;